Alliance, NE (69301)

2:11 PM MDT on September 21, 2014 (GMT -0600)
Alliance Municipal | Change Station
CLOSE
Current Station
Airport
Location: Alliance,
Elevation: 3930 ft
Nearby Weather Stations

Elev 3930 ft 42.06 °N, 102.80 °W | Updated 18 minutes ago

Mostly Cloudy
Mostly Cloudy
74 °F
Feels Like 74 °F
N
6
Wind Variable Wind from East

Today
High -- | Low -- °F
--% Chance of Precip.
Yesterday
High -- | Low -- °F
Precip. -- in
6:37 AM 6:50 PM
Waning Crescent, 5% visible
Pressure 30.26 in
Visibility 10.0 miles
Clouds Scattered Clouds 7000 ft
Dew Point 38 °F
Humidity 27%
Rainfall 0.00 in
Snow Depth Not available.
UV 5 out of 12
Pollen 5.60 out of 12
Air Quality Not available.
Flu Activity Not available.
METAR KAIA 211953Z AUTO 09005KT 10SM SCT070 23/03 A3031 RMK AO2 SLP247 T02330033

More Conditions Fewer Conditions

Pressure 30.26 in
Visibility 10.0 miles
Clouds Scattered Clouds 7000 ft
Dew Point 38 °F
Humidity 27%
Rainfall 0.00 in
Snow Depth Not available.
UV 5 out of 12
Pollen 5.60 out of 12
Air Quality Not available.
Flu Activity Not available.
METAR KAIA 211953Z AUTO 09005KT 10SM SCT070 23/03 A3031 RMK AO2 SLP247 T02330033

More Conditions Fewer Conditions

10-Day Weather Forecast

Almanac

Astronomy

Sep. 21, 2014 Rise Set
Actual Time 6:37 AM MDT 6:50 PM MDT
Civil Twilight 6:10 AM MDT 7:18 PM MDT
Nautical Twilight 5:37 AM MDT 7:51 PM MDT
Astronomical Twilight 5:03 AM MDT 8:24 PM MDT
Moon 4:11 AM MDT 5:29 PM MDT
Length of Visible Light 13h 08m
Length of Day
12h 12m
Tomorrow will be 2m 49s shorter.
Waning Crescent, 5% of the Moon is Illuminated
Today
Waning Crescent
Sep 24
New
Oct 1
First Quarter
Oct 8
Full
Oct 15
Last Quarter

Today's Extremes

State Highs State Lows

Community

WunderPhotos

Upload Photos

1,755,243 photos uploaded!

Nearby

Snow Depth

Station Depth Elevation
No new snow has been reported.

Earthquake Activity

City Distance Mag. Time & Date
No recent earthquake activity has been reported nearby.
Minimum magnitude displayed is 2.5.

Coastal Water Temperatures

Place Temperature
No Stations Reporting

Nearby Weather Stations